sensor_id;sensor_type;location;lat;lon;timestamp;P1;durP1;ratioP1;P2;durP2;ratioP2
19038;SDS011;9652;49.014;12.052;2022-12-05T00:01:13;24.30;;;11.67;;
19038;SDS011;9652;49.014;12.052;2022-12-05T00:03:45;22.00;;;10.60;;
19038;SDS011;9652;49.014;12.052;2022-12-05T00:06:14;20.90;;;11.10;;
19038;SDS011;9652;49.014;12.052;2022-12-05T00:08:42;21.63;;;11.07;;
19038;SDS011;9652;49.014;12.052;2022-12-05T00:11:11;21.23;;;11.27;;
19038;SDS011;9652;49.014;12.052;2022-12-05T00:13:41;21.43;;;11.10;;
19038;SDS011;9652;49.014;12.052;2022-12-05T00:16:10;20.40;;;11.67;;
19038;SDS011;9652;49.014;12.052;2022-12-05T00:18:40;18.17;;;10.70;;
19038;SDS011;9652;49.014;12.052;2022-12-05T00:21:10;17.33;;;9.47;;
19038;SDS011;9652;49.014;12.052;2022-12-05T00:23:39;19.13;;;11.07;;
19038;SDS011;9652;49.014;12.052;2022-12-05T00:26:08;17.43;;;10.17;;
19038;SDS011;9652;49.014;12.052;2022-12-05T00:28:36;20.53;;;10.60;;
19038;SDS011;9652;49.014;12.052;2022-12-05T00:31:04;17.43;;;9.37;;
19038;SDS011;9652;49.014;12.052;2022-12-05T00:33:36;19.20;;;10.37;;
19038;SDS011;9652;49.014;12.052;2022-12-05T00:36:04;14.53;;;9.23;;
19038;SDS011;9652;49.014;12.052;2022-12-05T00:38:36;17.50;;;9.00;;
19038;SDS011;9652;49.014;12.052;2022-12-05T00:41:04;16.13;;;9.47;;
19038;SDS011;9652;49.014;12.052;2022-12-05T00:43:34;15.63;;;8.63;;
19038;SDS011;9652;49.014;12.052;2022-12-05T00:46:02;12.63;;;8.43;;
19038;SDS011;9652;49.014;12.052;2022-12-05T00:48:31;14.13;;;7.97;;
19038;SDS011;9652;49.014;12.052;2022-12-05T00:51:00;13.83;;;8.37;;
19038;SDS011;9652;49.014;12.052;2022-12-05T00:53:30;18.27;;;9.60;;
19038;SDS011;9652;49.014;12.052;2022-12-05T00:56:00;14.40;;;8.47;;
19038;SDS011;9652;49.014;12.052;2022-12-05T00:58:28;14.97;;;8.47;;
19038;SDS011;9652;49.014;12.052;2022-12-05T01:00:56;12.13;;;8.47;;
19038;SDS011;9652;49.014;12.052;2022-12-05T01:03:30;13.70;;;8.40;;
19038;SDS011;9652;49.014;12.052;2022-12-05T01:05:57;13.90;;;8.53;;
19038;SDS011;9652;49.014;12.052;2022-12-05T01:08:25;12.73;;;8.37;;
19038;SDS011;9652;49.014;12.052;2022-12-05T01:10:54;14.20;;;7.97;;
19038;SDS011;9652;49.014;12.052;2022-12-05T01:13:22;12.00;;;8.20;;
19038;SDS011;9652;49.014;12.052;2022-12-05T01:15:51;13.63;;;7.40;;
19038;SDS011;9652;49.014;12.052;2022-12-05T01:18:20;13.27;;;7.80;;
19038;SDS011;9652;49.014;12.052;2022-12-05T01:20:48;12.10;;;7.10;;
19038;SDS011;9652;49.014;12.052;2022-12-05T01:23:16;15.97;;;8.80;;
19038;SDS011;9652;49.014;12.052;2022-12-05T01:25:44;13.70;;;8.30;;
19038;SDS011;9652;49.014;12.052;2022-12-05T01:28:16;12.43;;;7.80;;
19038;SDS011;9652;49.014;12.052;2022-12-05T01:30:45;11.43;;;7.83;;
19038;SDS011;9652;49.014;12.052;2022-12-05T01:33:15;12.20;;;8.57;;
19038;SDS011;9652;49.014;12.052;2022-12-05T01:35:43;11.60;;;7.70;;
19038;SDS011;9652;49.014;12.052;2022-12-05T01:38:11;11.67;;;7.83;;
19038;SDS011;9652;49.014;12.052;2022-12-05T01:40:39;11.10;;;7.37;;
19038;SDS011;9652;49.014;12.052;2022-12-05T01:43:09;9.83;;;8.10;;
19038;SDS011;9652;49.014;12.052;2022-12-05T01:45:44;12.60;;;8.23;;
19038;SDS011;9652;49.014;12.052;2022-12-05T01:48:13;12.77;;;7.90;;
19038;SDS011;9652;49.014;12.052;2022-12-05T01:50:45;9.87;;;7.03;;
19038;SDS011;9652;49.014;12.052;2022-12-05T01:53:15;12.70;;;7.73;;
19038;SDS011;9652;49.014;12.052;2022-12-05T01:55:43;11.63;;;7.30;;
19038;SDS011;9652;49.014;12.052;2022-12-05T01:58:13;11.90;;;7.40;;
19038;SDS011;9652;49.014;12.052;2022-12-05T02:00:42;10.10;;;7.23;;
19038;SDS011;9652;49.014;12.052;2022-12-05T02:03:14;11.43;;;7.53;;
19038;SDS011;9652;49.014;12.052;2022-12-05T02:05:45;11.70;;;7.67;;
19038;SDS011;9652;49.014;12.052;2022-12-05T02:08:16;11.70;;;7.50;;
19038;SDS011;9652;49.014;12.052;2022-12-05T02:10:44;10.13;;;7.13;;
19038;SDS011;9652;49.014;12.052;2022-12-05T02:13:32;8.63;;;6.83;;
19038;SDS011;9652;49.014;12.052;2022-12-05T02:16:20;8.13;;;6.73;;
19038;SDS011;9652;49.014;12.052;2022-12-05T02:19:03;10.40;;;6.50;;
19038;SDS011;9652;49.014;12.052;2022-12-05T02:22:10;10.17;;;6.77;;
19038;SDS011;9652;49.014;12.052;2022-12-05T02:28:52;7.93;;;6.23;;
19038;SDS011;9652;49.014;12.052;2022-12-05T02:32:15;10.90;;;5.87;;
19038;SDS011;9652;49.014;12.052;2022-12-05T02:34:51;11.77;;;6.90;;
19038;SDS011;9652;49.014;12.052;2022-12-05T02:37:27;8.90;;;6.43;;
19038;SDS011;9652;49.014;12.052;2022-12-05T02:40:02;8.93;;;7.03;;
19038;SDS011;9652;49.014;12.052;2022-12-05T02:42:40;12.50;;;7.40;;
19038;SDS011;9652;49.014;12.052;2022-12-05T02:45:15;9.43;;;6.67;;
19038;SDS011;9652;49.014;12.052;2022-12-05T02:47:49;9.30;;;6.77;;
19038;SDS011;9652;49.014;12.052;2022-12-05T02:50:19;8.77;;;6.77;;
19038;SDS011;9652;49.014;12.052;2022-12-05T02:52:55;9.57;;;7.07;;
19038;SDS011;9652;49.014;12.052;2022-12-05T02:55:27;11.90;;;7.13;;
19038;SDS011;9652;49.014;12.052;2022-12-05T02:58:00;8.83;;;5.97;;
19038;SDS011;9652;49.014;12.052;2022-12-05T03:00:34;10.17;;;6.93;;
19038;SDS011;9652;49.014;12.052;2022-12-05T03:03:10;9.30;;;7.30;;
19038;SDS011;9652;49.014;12.052;2022-12-05T03:05:44;8.70;;;6.27;;
19038;SDS011;9652;49.014;12.052;2022-12-05T03:08:22;9.90;;;6.43;;
19038;SDS011;9652;49.014;12.052;2022-12-05T03:10:56;9.40;;;6.80;;
19038;SDS011;9652;49.014;12.052;2022-12-05T03:13:28;8.87;;;6.00;;
19038;SDS011;9652;49.014;12.052;2022-12-05T03:16:03;6.57;;;5.60;;
19038;SDS011;9652;49.014;12.052;2022-12-05T03:18:42;8.03;;;5.93;;
19038;SDS011;9652;49.014;12.052;2022-12-05T03:21:18;8.33;;;6.17;;
19038;SDS011;9652;49.014;12.052;2022-12-05T03:23:53;8.30;;;5.20;;
19038;SDS011;9652;49.014;12.052;2022-12-05T03:26:35;8.10;;;5.80;;
19038;SDS011;9652;49.014;12.052;2022-12-05T03:29:18;7.77;;;6.23;;
19038;SDS011;9652;49.014;12.052;2022-12-05T03:31:56;8.27;;;6.23;;
19038;SDS011;9652;49.014;12.052;2022-12-05T03:34:36;8.03;;;6.30;;
19038;SDS011;9652;49.014;12.052;2022-12-05T03:37:17;6.30;;;5.57;;
19038;SDS011;9652;49.014;12.052;2022-12-05T03:39:54;7.17;;;5.97;;
19038;SDS011;9652;49.014;12.052;2022-12-05T03:42:32;6.53;;;5.30;;
19038;SDS011;9652;49.014;12.052;2022-12-05T03:45:06;6.63;;;5.90;;
19038;SDS011;9652;49.014;12.052;2022-12-05T03:47:38;8.07;;;5.80;;
19038;SDS011;9652;49.014;12.052;2022-12-05T03:50:17;8.27;;;6.30;;
19038;SDS011;9652;49.014;12.052;2022-12-05T03:52:53;7.33;;;5.60;;
19038;SDS011;9652;49.014;12.052;2022-12-05T03:55:24;8.37;;;6.10;;
19038;SDS011;9652;49.014;12.052;2022-12-05T03:57:58;8.20;;;5.67;;
19038;SDS011;9652;49.014;12.052;2022-12-05T04:00:31;7.37;;;5.70;;
19038;SDS011;9652;49.014;12.052;2022-12-05T04:03:06;8.13;;;6.17;;
19038;SDS011;9652;49.014;12.052;2022-12-05T04:05:42;10.30;;;7.23;;
19038;SDS011;9652;49.014;12.052;2022-12-05T04:08:15;9.73;;;6.40;;
19038;SDS011;9652;49.014;12.052;2022-12-05T04:10:48;8.60;;;6.10;;
19038;SDS011;9652;49.014;12.052;2022-12-05T04:13:22;8.93;;;6.83;;
19038;SDS011;9652;49.014;12.052;2022-12-05T04:16:01;10.50;;;6.77;;
19038;SDS011;9652;49.014;12.052;2022-12-05T04:18:53;10.07;;;6.17;;
19038;SDS011;9652;49.014;12.052;2022-12-05T04:21:30;10.10;;;7.13;;
19038;SDS011;9652;49.014;12.052;2022-12-05T04:24:02;9.23;;;6.50;;
19038;SDS011;9652;49.014;12.052;2022-12-05T04:26:51;12.33;;;6.93;;
19038;SDS011;9652;49.014;12.052;2022-12-05T04:29:36;7.70;;;6.00;;
19038;SDS011;9652;49.014;12.052;2022-12-05T04:32:13;10.27;;;7.00;;
19038;SDS011;9652;49.014;12.052;2022-12-05T04:34:41;10.83;;;6.87;;
19038;SDS011;9652;49.014;12.052;2022-12-05T04:37:22;9.63;;;6.87;;
19038;SDS011;9652;49.014;12.052;2022-12-05T04:39:54;9.57;;;6.73;;
19038;SDS011;9652;49.014;12.052;2022-12-05T04:42:29;12.30;;;6.90;;
19038;SDS011;9652;49.014;12.052;2022-12-05T04:45:01;13.30;;;6.83;;
19038;SDS011;9652;49.014;12.052;2022-12-05T04:47:34;11.73;;;7.13;;
19038;SDS011;9652;49.014;12.052;2022-12-05T04:50:08;10.30;;;7.00;;
19038;SDS011;9652;49.014;12.052;2022-12-05T04:52:42;11.40;;;7.17;;
19038;SDS011;9652;49.014;12.052;2022-12-05T04:55:15;10.07;;;7.30;;
19038;SDS011;9652;49.014;12.052;2022-12-05T04:57:52;10.87;;;7.27;;
19038;SDS011;9652;49.014;12.052;2022-12-05T05:00:29;11.87;;;7.80;;
19038;SDS011;9652;49.014;12.052;2022-12-05T05:02:59;10.93;;;6.63;;
19038;SDS011;9652;49.014;12.052;2022-12-05T05:05:32;10.23;;;6.00;;
19038;SDS011;9652;49.014;12.052;2022-12-05T05:08:04;9.67;;;6.67;;
19038;SDS011;9652;49.014;12.052;2022-12-05T05:10:44;10.73;;;6.97;;
19038;SDS011;9652;49.014;12.052;2022-12-05T05:13:22;11.37;;;6.27;;
19038;SDS011;9652;49.014;12.052;2022-12-05T05:15:50;8.70;;;6.87;;
19038;SDS011;9652;49.014;12.052;2022-12-05T05:18:17;8.13;;;6.63;;
19038;SDS011;9652;49.014;12.052;2022-12-05T05:20:44;7.13;;;6.17;;
19038;SDS011;9652;49.014;12.052;2022-12-05T05:23:12;10.40;;;6.87;;
19038;SDS011;9652;49.014;12.052;2022-12-05T05:25:39;10.50;;;6.33;;
19038;SDS011;9652;49.014;12.052;2022-12-05T05:28:06;9.70;;;6.57;;
19038;SDS011;9652;49.014;12.052;2022-12-05T05:30:34;8.83;;;6.57;;
19038;SDS011;9652;49.014;12.052;2022-12-05T05:33:01;9.17;;;6.60;;
19038;SDS011;9652;49.014;12.052;2022-12-05T05:35:28;9.33;;;6.60;;
19038;SDS011;9652;49.014;12.052;2022-12-05T05:37:55;10.23;;;7.10;;
19038;SDS011;9652;49.014;12.052;2022-12-05T05:40:24;11.50;;;6.93;;
19038;SDS011;9652;49.014;12.052;2022-12-05T05:42:51;11.47;;;7.07;;
19038;SDS011;9652;49.014;12.052;2022-12-05T05:45:18;9.90;;;6.87;;
19038;SDS011;9652;49.014;12.052;2022-12-05T05:47:46;9.17;;;6.43;;
19038;SDS011;9652;49.014;12.052;2022-12-05T05:50:14;10.27;;;7.10;;
19038;SDS011;9652;49.014;12.052;2022-12-05T05:52:42;10.27;;;6.40;;
19038;SDS011;9652;49.014;12.052;2022-12-05T05:55:09;9.47;;;6.30;;
19038;SDS011;9652;49.014;12.052;2022-12-05T05:57:38;10.33;;;7.13;;
19038;SDS011;9652;49.014;12.052;2022-12-05T06:00:06;10.10;;;6.73;;
19038;SDS011;9652;49.014;12.052;2022-12-05T06:02:34;10.57;;;7.17;;
19038;SDS011;9652;49.014;12.052;2022-12-05T06:05:02;9.90;;;7.10;;
19038;SDS011;9652;49.014;12.052;2022-12-05T06:07:30;10.50;;;7.00;;
19038;SDS011;9652;49.014;12.052;2022-12-05T06:09:58;11.07;;;7.27;;
19038;SDS011;9652;49.014;12.052;2022-12-05T06:12:25;9.50;;;6.80;;
19038;SDS011;9652;49.014;12.052;2022-12-05T06:14:53;9.87;;;7.23;;
19038;SDS011;9652;49.014;12.052;2022-12-05T06:17:21;10.53;;;6.83;;
19038;SDS011;9652;49.014;12.052;2022-12-05T06:19:48;12.17;;;8.20;;
19038;SDS011;9652;49.014;12.052;2022-12-05T06:22:15;12.27;;;7.70;;
19038;SDS011;9652;49.014;12.052;2022-12-05T06:24:42;12.03;;;7.87;;
19038;SDS011;9652;49.014;12.052;2022-12-05T06:27:09;12.17;;;7.57;;
19038;SDS011;9652;49.014;12.052;2022-12-05T06:29:36;11.60;;;7.50;;
19038;SDS011;9652;49.014;12.052;2022-12-05T06:32:05;11.53;;;7.97;;
19038;SDS011;9652;49.014;12.052;2022-12-05T06:34:33;14.73;;;8.47;;
19038;SDS011;9652;49.014;12.052;2022-12-05T06:37:00;12.37;;;7.80;;
19038;SDS011;9652;49.014;12.052;2022-12-05T06:39:28;10.53;;;7.47;;
19038;SDS011;9652;49.014;12.052;2022-12-05T06:41:55;12.43;;;7.90;;
19038;SDS011;9652;49.014;12.052;2022-12-05T06:44:22;12.17;;;8.00;;
19038;SDS011;9652;49.014;12.052;2022-12-05T06:46:51;12.93;;;7.43;;
19038;SDS011;9652;49.014;12.052;2022-12-05T06:49:19;12.13;;;7.60;;
19038;SDS011;9652;49.014;12.052;2022-12-05T06:51:50;12.67;;;7.70;;
19038;SDS011;9652;49.014;12.052;2022-12-05T06:54:17;14.70;;;8.10;;
19038;SDS011;9652;49.014;12.052;2022-12-05T06:56:45;11.97;;;8.30;;
19038;SDS011;9652;49.014;12.052;2022-12-05T06:59:13;11.10;;;7.10;;
19038;SDS011;9652;49.014;12.052;2022-12-05T07:01:40;10.97;;;7.57;;
19038;SDS011;9652;49.014;12.052;2022-12-05T07:04:08;12.27;;;7.83;;
19038;SDS011;9652;49.014;12.052;2022-12-05T07:06:41;11.20;;;7.67;;
19038;SDS011;9652;49.014;12.052;2022-12-05T07:09:10;12.27;;;7.87;;
19038;SDS011;9652;49.014;12.052;2022-12-05T07:11:38;12.30;;;7.40;;
19038;SDS011;9652;49.014;12.052;2022-12-05T07:14:06;13.67;;;7.63;;
19038;SDS011;9652;49.014;12.052;2022-12-05T07:16:34;12.60;;;7.87;;
19038;SDS011;9652;49.014;12.052;2022-12-05T07:19:02;11.60;;;7.70;;
19038;SDS011;9652;49.014;12.052;2022-12-05T07:21:29;13.47;;;8.37;;
19038;SDS011;9652;49.014;12.052;2022-12-05T07:23:58;13.90;;;8.13;;
19038;SDS011;9652;49.014;12.052;2022-12-05T07:26:25;11.57;;;8.03;;
19038;SDS011;9652;49.014;12.052;2022-12-05T07:28:53;14.60;;;8.13;;
19038;SDS011;9652;49.014;12.052;2022-12-05T07:31:22;15.17;;;8.33;;
19038;SDS011;9652;49.014;12.052;2022-12-05T07:33:50;14.63;;;9.30;;
19038;SDS011;9652;49.014;12.052;2022-12-05T07:36:19;16.20;;;8.87;;
19038;SDS011;9652;49.014;12.052;2022-12-05T07:38:52;14.67;;;8.57;;
19038;SDS011;9652;49.014;12.052;2022-12-05T07:41:23;14.27;;;8.50;;
19038;SDS011;9652;49.014;12.052;2022-12-05T07:43:54;15.90;;;8.87;;
19038;SDS011;9652;49.014;12.052;2022-12-05T07:46:23;12.43;;;8.43;;
19038;SDS011;9652;49.014;12.052;2022-12-05T07:48:52;13.33;;;7.90;;
19038;SDS011;9652;49.014;12.052;2022-12-05T07:51:20;17.03;;;8.13;;
19038;SDS011;9652;49.014;12.052;2022-12-05T07:53:48;16.27;;;8.90;;
19038;SDS011;9652;49.014;12.052;2022-12-05T07:56:15;13.93;;;8.67;;
19038;SDS011;9652;49.014;12.052;2022-12-05T07:58:45;12.27;;;8.07;;
19038;SDS011;9652;49.014;12.052;2022-12-05T08:01:15;17.40;;;9.60;;
19038;SDS011;9652;49.014;12.052;2022-12-05T08:03:46;15.93;;;9.07;;
19038;SDS011;9652;49.014;12.052;2022-12-05T08:06:15;22.13;;;10.10;;
19038;SDS011;9652;49.014;12.052;2022-12-05T08:08:46;16.83;;;9.73;;
19038;SDS011;9652;49.014;12.052;2022-12-05T08:11:14;15.20;;;9.57;;
19038;SDS011;9652;49.014;12.052;2022-12-05T08:13:45;16.90;;;9.90;;
19038;SDS011;9652;49.014;12.052;2022-12-05T08:16:14;18.33;;;9.93;;
19038;SDS011;9652;49.014;12.052;2022-12-05T08:18:44;16.53;;;9.40;;
19038;SDS011;9652;49.014;12.052;2022-12-05T08:21:12;20.67;;;10.53;;
19038;SDS011;9652;49.014;12.052;2022-12-05T08:23:42;16.40;;;10.53;;
19038;SDS011;9652;49.014;12.052;2022-12-05T08:26:12;17.83;;;11.13;;
19038;SDS011;9652;49.014;12.052;2022-12-05T08:28:42;18.47;;;10.57;;
19038;SDS011;9652;49.014;12.052;2022-12-05T08:31:12;18.93;;;10.00;;
19038;SDS011;9652;49.014;12.052;2022-12-05T08:33:41;17.10;;;10.10;;
19038;SDS011;9652;49.014;12.052;2022-12-05T08:36:10;15.97;;;8.47;;
19038;SDS011;9652;49.014;12.052;2022-12-05T08:38:39;18.17;;;9.53;;
19038;SDS011;9652;49.014;12.052;2022-12-05T08:41:08;17.23;;;10.17;;
19038;SDS011;9652;49.014;12.052;2022-12-05T08:43:37;16.80;;;9.13;;
19038;SDS011;9652;49.014;12.052;2022-12-05T08:46:05;17.63;;;9.73;;
19038;SDS011;9652;49.014;12.052;2022-12-05T08:48:34;19.97;;;9.87;;
19038;SDS011;9652;49.014;12.052;2022-12-05T08:51:03;17.90;;;10.27;;
19038;SDS011;9652;49.014;12.052;2022-12-05T08:53:33;19.67;;;11.33;;
19038;SDS011;9652;49.014;12.052;2022-12-05T08:56:01;20.33;;;10.17;;
19038;SDS011;9652;49.014;12.052;2022-12-05T08:58:30;16.20;;;9.93;;
19038;SDS011;9652;49.014;12.052;2022-12-05T09:01:02;18.27;;;10.07;;
19038;SDS011;9652;49.014;12.052;2022-12-05T09:03:30;16.93;;;9.50;;
19038;SDS011;9652;49.014;12.052;2022-12-05T09:06:05;16.80;;;10.27;;
19038;SDS011;9652;49.014;12.052;2022-12-05T09:08:34;18.90;;;10.27;;
19038;SDS011;9652;49.014;12.052;2022-12-05T09:11:06;15.37;;;9.50;;
19038;SDS011;9652;49.014;12.052;2022-12-05T09:13:35;17.90;;;9.57;;
19038;SDS011;9652;49.014;12.052;2022-12-05T09:16:06;20.30;;;11.20;;
19038;SDS011;9652;49.014;12.052;2022-12-05T09:18:34;17.70;;;10.17;;
19038;SDS011;9652;49.014;12.052;2022-12-05T09:21:07;18.53;;;10.27;;
19038;SDS011;9652;49.014;12.052;2022-12-05T09:23:39;16.80;;;10.33;;
19038;SDS011;9652;49.014;12.052;2022-12-05T09:26:08;21.00;;;11.13;;
19038;SDS011;9652;49.014;12.052;2022-12-05T09:28:37;22.23;;;12.20;;
19038;SDS011;9652;49.014;12.052;2022-12-05T09:31:06;19.00;;;11.60;;
19038;SDS011;9652;49.014;12.052;2022-12-05T09:33:36;17.50;;;10.93;;
19038;SDS011;9652;49.014;12.052;2022-12-05T09:36:05;19.17;;;11.23;;
19038;SDS011;9652;49.014;12.052;2022-12-05T09:38:40;22.50;;;11.73;;
19038;SDS011;9652;49.014;12.052;2022-12-05T09:41:10;18.00;;;10.80;;
19038;SDS011;9652;49.014;12.052;2022-12-05T09:44:11;17.67;;;11.37;;
19038;SDS011;9652;49.014;12.052;2022-12-05T09:46:48;22.77;;;11.40;;
19038;SDS011;9652;49.014;12.052;2022-12-05T09:49:23;16.63;;;10.53;;
19038;SDS011;9652;49.014;12.052;2022-12-05T09:51:53;21.23;;;10.70;;
19038;SDS011;9652;49.014;12.052;2022-12-05T09:54:22;17.37;;;10.10;;
19038;SDS011;9652;49.014;12.052;2022-12-05T09:56:51;18.73;;;10.63;;
19038;SDS011;9652;49.014;12.052;2022-12-05T09:59:19;17.23;;;10.80;;
19038;SDS011;9652;49.014;12.052;2022-12-05T10:01:48;21.10;;;11.47;;
19038;SDS011;9652;49.014;12.052;2022-12-05T10:07:24;19.13;;;10.97;;
19038;SDS011;9652;49.014;12.052;2022-12-05T10:10:02;19.30;;;11.63;;
19038;SDS011;9652;49.014;12.052;2022-12-05T10:13:07;15.73;;;9.80;;
19038;SDS011;9652;49.014;12.052;2022-12-05T10:15:52;15.97;;;10.90;;
19038;SDS011;9652;49.014;12.052;2022-12-05T10:18:27;16.80;;;9.87;;
19038;SDS011;9652;49.014;12.052;2022-12-05T10:21:04;21.40;;;11.00;;
19038;SDS011;9652;49.014;12.052;2022-12-05T10:23:45;18.23;;;10.27;;
19038;SDS011;9652;49.014;12.052;2022-12-05T10:26:21;15.17;;;9.77;;
19038;SDS011;9652;49.014;12.052;2022-12-05T10:28:50;16.13;;;9.07;;
19038;SDS011;9652;49.014;12.052;2022-12-05T10:31:28;20.33;;;11.00;;
19038;SDS011;9652;49.014;12.052;2022-12-05T10:34:02;19.47;;;11.57;;
19038;SDS011;9652;49.014;12.052;2022-12-05T10:36:37;19.33;;;10.73;;
19038;SDS011;9652;49.014;12.052;2022-12-05T10:39:05;16.60;;;10.67;;
19038;SDS011;9652;49.014;12.052;2022-12-05T10:41:32;18.27;;;10.67;;
19038;SDS011;9652;49.014;12.052;2022-12-05T10:43:59;18.47;;;10.80;;
19038;SDS011;9652;49.014;12.052;2022-12-05T10:46:27;17.40;;;10.27;;
19038;SDS011;9652;49.014;12.052;2022-12-05T10:48:54;17.03;;;10.70;;
19038;SDS011;9652;49.014;12.052;2022-12-05T10:51:23;18.80;;;11.13;;
19038;SDS011;9652;49.014;12.052;2022-12-05T10:53:53;16.97;;;9.97;;
19038;SDS011;9652;49.014;12.052;2022-12-05T10:56:36;17.77;;;10.50;;
19038;SDS011;9652;49.014;12.052;2022-12-05T10:59:06;14.93;;;8.43;;
19038;SDS011;9652;49.014;12.052;2022-12-05T11:01:36;17.43;;;9.30;;
19038;SDS011;9652;49.014;12.052;2022-12-05T11:04:17;15.47;;;9.37;;
19038;SDS011;9652;49.014;12.052;2022-12-05T11:06:50;15.63;;;9.87;;
19038;SDS011;9652;49.014;12.052;2022-12-05T11:09:23;14.87;;;8.67;;
19038;SDS011;9652;49.014;12.052;2022-12-05T11:15:01;14.50;;;9.57;;
19038;SDS011;9652;49.014;12.052;2022-12-05T11:17:32;15.87;;;8.77;;
19038;SDS011;9652;49.014;12.052;2022-12-05T11:20:12;12.67;;;8.57;;
19038;SDS011;9652;49.014;12.052;2022-12-05T11:23:21;14.40;;;9.53;;
19038;SDS011;9652;49.014;12.052;2022-12-05T11:25:52;10.73;;;7.40;;
19038;SDS011;9652;49.014;12.052;2022-12-05T11:28:23;14.50;;;8.57;;
19038;SDS011;9652;49.014;12.052;2022-12-05T11:31:01;11.60;;;8.37;;
19038;SDS011;9652;49.014;12.052;2022-12-05T11:33:33;13.73;;;8.77;;
19038;SDS011;9652;49.014;12.052;2022-12-05T11:36:03;14.37;;;8.40;;
19038;SDS011;9652;49.014;12.052;2022-12-05T11:38:39;14.13;;;8.10;;
19038;SDS011;9652;49.014;12.052;2022-12-05T11:41:11;11.90;;;7.33;;
19038;SDS011;9652;49.014;12.052;2022-12-05T11:44:13;12.67;;;7.73;;
19038;SDS011;9652;49.014;12.052;2022-12-05T11:47:06;11.53;;;7.57;;
19038;SDS011;9652;49.014;12.052;2022-12-05T11:49:56;11.43;;;7.23;;
19038;SDS011;9652;49.014;12.052;2022-12-05T11:52:50;9.40;;;6.63;;
19038;SDS011;9652;49.014;12.052;2022-12-05T11:55:29;10.00;;;6.63;;
19038;SDS011;9652;49.014;12.052;2022-12-05T11:58:12;10.73;;;7.03;;
19038;SDS011;9652;49.014;12.052;2022-12-05T12:01:00;9.73;;;6.37;;
19038;SDS011;9652;49.014;12.052;2022-12-05T12:07:12;6.87;;;5.67;;
19038;SDS011;9652;49.014;12.052;2022-12-05T12:10:10;5.97;;;5.00;;
19038;SDS011;9652;49.014;12.052;2022-12-05T12:12:51;6.30;;;5.10;;
19038;SDS011;9652;49.014;12.052;2022-12-05T12:15:44;6.23;;;4.80;;
19038;SDS011;9652;49.014;12.052;2022-12-05T12:21:51;5.90;;;5.30;;
19038;SDS011;9652;49.014;12.052;2022-12-05T12:24:40;5.27;;;4.73;;
19038;SDS011;9652;49.014;12.052;2022-12-05T12:27:31;6.43;;;5.37;;
19038;SDS011;9652;49.014;12.052;2022-12-05T12:30:14;6.73;;;4.77;;
19038;SDS011;9652;49.014;12.052;2022-12-05T12:32:49;5.13;;;4.60;;
19038;SDS011;9652;49.014;12.052;2022-12-05T12:35:30;6.20;;;4.47;;
19038;SDS011;9652;49.014;12.052;2022-12-05T12:38:16;5.97;;;4.90;;
19038;SDS011;9652;49.014;12.052;2022-12-05T12:41:18;6.60;;;5.10;;
19038;SDS011;9652;49.014;12.052;2022-12-05T12:44:17;6.10;;;4.87;;
19038;SDS011;9652;49.014;12.052;2022-12-05T12:47:13;4.47;;;4.03;;
19038;SDS011;9652;49.014;12.052;2022-12-05T12:49:54;6.83;;;4.97;;
19038;SDS011;9652;49.014;12.052;2022-12-05T12:52:34;4.53;;;4.13;;
19038;SDS011;9652;49.014;12.052;2022-12-05T12:55:29;5.90;;;4.70;;
19038;SDS011;9652;49.014;12.052;2022-12-05T12:58:10;5.33;;;4.57;;
19038;SDS011;9652;49.014;12.052;2022-12-05T13:00:58;4.60;;;4.10;;
19038;SDS011;9652;49.014;12.052;2022-12-05T13:03:33;4.67;;;4.27;;
19038;SDS011;9652;49.014;12.052;2022-12-05T13:06:08;6.50;;;4.70;;
19038;SDS011;9652;49.014;12.052;2022-12-05T13:08:46;5.77;;;4.77;;
19038;SDS011;9652;49.014;12.052;2022-12-05T13:11:20;5.60;;;5.07;;
19038;SDS011;9652;49.014;12.052;2022-12-05T13:13:50;4.97;;;4.47;;
19038;SDS011;9652;49.014;12.052;2022-12-05T13:16:22;5.37;;;4.87;;
19038;SDS011;9652;49.014;12.052;2022-12-05T13:18:53;5.53;;;4.87;;
19038;SDS011;9652;49.014;12.052;2022-12-05T13:21:23;5.23;;;4.73;;
19038;SDS011;9652;49.014;12.052;2022-12-05T13:23:54;6.23;;;5.10;;
19038;SDS011;9652;49.014;12.052;2022-12-05T13:26:27;5.77;;;4.70;;
19038;SDS011;9652;49.014;12.052;2022-12-05T13:28:56;5.87;;;5.20;;
19038;SDS011;9652;49.014;12.052;2022-12-05T13:31:34;5.57;;;4.97;;
19038;SDS011;9652;49.014;12.052;2022-12-05T13:34:05;4.93;;;4.27;;
19038;SDS011;9652;49.014;12.052;2022-12-05T13:37:10;5.20;;;4.70;;
19038;SDS011;9652;49.014;12.052;2022-12-05T13:40:05;5.23;;;4.53;;
19038;SDS011;9652;49.014;12.052;2022-12-05T13:43:07;7.00;;;4.47;;
19038;SDS011;9652;49.014;12.052;2022-12-05T13:45:36;5.60;;;4.57;;
19038;SDS011;9652;49.014;12.052;2022-12-05T13:48:13;6.17;;;4.93;;
19038;SDS011;9652;49.014;12.052;2022-12-05T13:50:49;6.43;;;5.03;;
19038;SDS011;9652;49.014;12.052;2022-12-05T13:53:26;5.53;;;4.87;;
19038;SDS011;9652;49.014;12.052;2022-12-05T13:56:03;6.50;;;5.00;;
19038;SDS011;9652;49.014;12.052;2022-12-05T13:58:48;5.83;;;4.87;;
19038;SDS011;9652;49.014;12.052;2022-12-05T14:10:08;5.07;;;4.57;;
19038;SDS011;9652;49.014;12.052;2022-12-05T14:12:47;5.33;;;4.80;;
19038;SDS011;9652;49.014;12.052;2022-12-05T14:15:28;4.40;;;3.77;;
19038;SDS011;9652;49.014;12.052;2022-12-05T14:18:00;5.37;;;4.63;;
19038;SDS011;9652;49.014;12.052;2022-12-05T14:23:42;5.33;;;4.83;;
19038;SDS011;9652;49.014;12.052;2022-12-05T14:26:28;5.80;;;5.30;;
19038;SDS011;9652;49.014;12.052;2022-12-05T14:29:23;5.13;;;4.63;;
19038;SDS011;9652;49.014;12.052;2022-12-05T14:32:14;4.83;;;4.40;;
19038;SDS011;9652;49.014;12.052;2022-12-05T14:34:54;5.83;;;5.07;;
19038;SDS011;9652;49.014;12.052;2022-12-05T14:37:28;5.47;;;4.80;;
19038;SDS011;9652;49.014;12.052;2022-12-05T14:39:58;5.10;;;4.60;;
19038;SDS011;9652;49.014;12.052;2022-12-05T14:42:31;7.30;;;5.63;;
19038;SDS011;9652;49.014;12.052;2022-12-05T14:47:55;7.10;;;5.37;;
19038;SDS011;9652;49.014;12.052;2022-12-05T14:50:35;6.23;;;5.63;;
19038;SDS011;9652;49.014;12.052;2022-12-05T14:53:24;7.20;;;5.40;;
19038;SDS011;9652;49.014;12.052;2022-12-05T14:56:02;8.37;;;5.80;;
19038;SDS011;9652;49.014;12.052;2022-12-05T14:58:49;7.83;;;5.83;;
19038;SDS011;9652;49.014;12.052;2022-12-05T15:01:25;8.87;;;6.10;;
19038;SDS011;9652;49.014;12.052;2022-12-05T15:04:02;8.03;;;5.77;;
19038;SDS011;9652;49.014;12.052;2022-12-05T15:06:44;6.77;;;5.53;;
19038;SDS011;9652;49.014;12.052;2022-12-05T15:09:29;7.40;;;6.10;;
19038;SDS011;9652;49.014;12.052;2022-12-05T15:12:10;8.43;;;6.50;;
19038;SDS011;9652;49.014;12.052;2022-12-05T15:14:53;7.70;;;6.30;;
19038;SDS011;9652;49.014;12.052;2022-12-05T15:17:34;9.57;;;6.37;;
19038;SDS011;9652;49.014;12.052;2022-12-05T15:20:12;7.33;;;5.97;;
19038;SDS011;9652;49.014;12.052;2022-12-05T15:22:46;9.00;;;6.80;;
19038;SDS011;9652;49.014;12.052;2022-12-05T15:25:14;10.03;;;6.97;;
19038;SDS011;9652;49.014;12.052;2022-12-05T15:27:59;8.37;;;6.37;;
19038;SDS011;9652;49.014;12.052;2022-12-05T15:30:31;11.40;;;7.43;;
19038;SDS011;9652;49.014;12.052;2022-12-05T15:33:05;11.70;;;7.23;;
19038;SDS011;9652;49.014;12.052;2022-12-05T15:35:37;9.67;;;6.50;;
19038;SDS011;9652;49.014;12.052;2022-12-05T15:38:07;11.20;;;8.00;;
19038;SDS011;9652;49.014;12.052;2022-12-05T15:40:45;12.43;;;8.23;;
19038;SDS011;9652;49.014;12.052;2022-12-05T15:43:25;12.43;;;8.13;;
19038;SDS011;9652;49.014;12.052;2022-12-05T15:46:06;11.57;;;7.20;;
19038;SDS011;9652;49.014;12.052;2022-12-05T15:48:42;12.33;;;8.20;;